To NAV CANADA Home Page Login to a new session Search on AWWS site Feedback and Comments Disclaimer Vers la page française équivalente Tips FAQ What's new on the site To the Forecasts and Observations / NOTAM section To "File a Flight Plan" website Publications and other links Update of the User's profile FIC Telephone Numbers My Weather Data Folder Route Weather Data Regional Weather Data Local Weather Data To the Forecasts and Observations / NOTAM section
Request Generated 04/30/2017 at 20:32:10 UTC . Weather information available at that time is displayed.

METAR/TAF

MONTREAL INTL (MIRABEL)/QC    

METAR CYMX 302000Z 08005KT 050V120 20SM -RA FEW040 OVC080 06/M00
A3027 RMK SC2AC6 SLP256=
METAR CYMX 301900Z 07006KT 360V100 25SM -RA FEW035 OVC100 07/M02
A3026 RMK SC1AS8 SC TR -RA INTMT SLP253=
SPECI CYMX 301844Z 07007KT 030V090 45SM -RA FEW035 OVC100 07/M03
A3026 RMK SC1AS8 SC TR SLP251=
METAR CYMX 301800Z 01004KT 340V090 45SM FEW040 BKN080 OVC120 07/M03
A3028 RMK SC1AC4AC3 SLP260=

TAF CYMX 301740Z 3018/0118 09007KT P6SM FEW040 BKN100 TEMPO 3018/3020
P6SM -SHRA
FM302000 08008KT P6SM FEW020 OVC080 TEMPO 3020/3023 P6SM -SHRA
FM302300 08008G18KT P6SM -SHRA BKN020 OVC050
FM010300 06010G20KT 5SM -RA BR SCT006 OVC020
FM010500 06010G20KT 11/2SM RA BR OVC003
FM011500 06010G20KT 1SM -DZ BR OVC003
RMK NXT FCST BY 010000Z=
Your time UTC time
Weather data provided by Environment Canada and NAV CANADA